createdAt,value
2019-05-02T00:03:04.478Z,58.20
2019-05-02T00:07:06.937Z,58.20
2019-05-02T00:11:10.916Z,58.40
2019-05-02T00:15:17.401Z,58.80
2019-05-02T00:19:20.419Z,58.60
2019-05-02T00:23:27.927Z,58.90
2019-05-02T00:27:28.101Z,59.00
2019-05-02T00:31:31.065Z,59.20
2019-05-02T00:35:34.018Z,59.10
2019-05-02T00:39:37.041Z,59.20
2019-05-02T00:43:39.927Z,59.30
2019-05-02T00:47:50.498Z,59.60
2019-05-02T00:51:56.602Z,60.30
2019-05-02T00:55:58.221Z,62.80
2019-05-02T01:00:01.234Z,63.50
2019-05-02T01:04:10.819Z,64.60
2019-05-02T01:08:13.833Z,65.00
2019-05-02T01:12:26.110Z,66.30
2019-05-02T01:16:21.607Z,66.70
2019-05-02T01:20:27.530Z,67.90
2019-05-02T01:24:29.367Z,68.30
2019-05-02T01:28:40.487Z,69.80
2019-05-02T01:33:06.363Z,70.30
2019-05-02T01:37:20.682Z,70.80
2019-05-02T01:41:24.020Z,71.10
2019-05-02T01:45:25.237Z,72.00
2019-05-02T01:49:28.282Z,71.80
2019-05-02T01:53:34.408Z,70.90
2019-05-02T01:57:39.877Z,70.50
2019-05-02T02:01:42.216Z,70.10
2019-05-02T02:05:45.316Z,69.70
2019-05-02T02:09:48.241Z,69.70
2019-05-02T02:13:51.467Z,69.70
2019-05-02T02:17:54.568Z,70.80
2019-05-02T02:22:27.760Z,71.00
2019-05-02T02:26:30.777Z,71.30
2019-05-02T02:30:33.885Z,71.50
2019-05-02T02:34:36.804Z,71.70
2019-05-02T02:38:39.743Z,72.10
2019-05-02T02:42:42.708Z,72.10
2019-05-02T02:46:45.961Z,72.40
2019-05-02T02:50:50.017Z,72.70
2019-05-02T02:54:52.990Z,73.50
2019-05-02T02:58:56.046Z,73.70
2019-05-02T03:02:59.134Z,74.10
2019-05-02T03:07:02.087Z,74.70
2019-05-02T03:11:05.044Z,75.00
2019-05-02T03:15:11.753Z,74.40
2019-05-02T03:19:20.938Z,74.40
2019-05-02T03:23:24.245Z,74.20
2019-05-02T03:27:29.691Z,73.70
2019-05-02T03:31:32.255Z,73.20
2019-05-02T03:35:42.656Z,73.00
2019-05-02T03:39:41.305Z,73.30
2019-05-02T03:43:44.421Z,72.90
2019-05-02T03:47:49.504Z,72.60
2019-05-02T03:51:56.019Z,73.10
2019-05-02T03:56:10.656Z,72.90
2019-05-02T04:00:05.739Z,73.30
2019-05-02T04:04:14.064Z,73.60
2019-05-02T04:08:20.844Z,73.10
2019-05-02T04:12:21.979Z,73.00
2019-05-02T04:16:26.408Z,73.10
2019-05-02T04:20:29.772Z,73.00
2019-05-02T04:24:32.982Z,73.20
2019-05-02T04:28:36.380Z,73.30
2019-05-02T04:32:42.744Z,72.80
2019-05-02T04:36:46.702Z,72.60
2019-05-02T04:40:49.566Z,72.40
2019-05-02T04:45:12.027Z,72.10
2019-05-02T04:48:58.899Z,72.10
2019-05-02T04:53:08.371Z,72.00
2019-05-02T04:57:10.780Z,72.10
2019-05-02T05:01:17.428Z,72.10
2019-05-02T05:05:25.827Z,70.90
2019-05-02T05:09:27.748Z,70.20
2019-05-02T05:13:29.916Z,69.00
2019-05-02T05:17:34.198Z,68.30
2019-05-02T05:21:39.253Z,68.70
2019-05-02T05:25:50.561Z,68.70
2019-05-02T05:29:53.710Z,69.20
2019-05-02T05:33:59.098Z,69.00
2019-05-02T05:38:02.097Z,68.90
2019-05-02T05:42:05.180Z,68.30
2019-05-02T05:46:13.047Z,67.70
2019-05-02T05:50:17.665Z,67.50
2019-05-02T05:54:20.749Z,67.70
2019-05-02T05:58:23.904Z,68.00
2019-05-02T06:02:28.396Z,67.40
2019-05-02T06:06:31.526Z,67.00
2019-05-02T06:10:34.566Z,66.00
2019-05-02T06:14:39.273Z,65.50
2019-05-02T06:18:43.692Z,64.20
2019-05-02T06:22:46.814Z,63.80
2019-05-02T06:26:51.734Z,63.40
2019-05-02T06:30:54.720Z,63.40
2019-05-02T06:34:57.652Z,62.80
2019-05-02T06:39:00.637Z,63.10
2019-05-02T06:43:04.382Z,63.50
2019-05-02T06:47:08.386Z,62.80
2019-05-02T06:51:19.510Z,62.70
2019-05-02T06:55:16.529Z,62.80
2019-05-02T06:59:20.348Z,62.70
2019-05-02T07:03:23.411Z,63.00
2019-05-02T07:07:31.391Z,63.00
2019-05-02T07:11:40.624Z,62.80
2019-05-02T07:16:16.205Z,62.80
2019-05-02T07:20:16.912Z,62.80
2019-05-02T07:24:20.028Z,63.30
2019-05-02T07:28:24.147Z,63.60
2019-05-02T07:32:28.211Z,62.60
2019-05-02T07:36:36.117Z,62.00
2019-05-02T07:40:36.054Z,62.40
2019-05-02T07:44:39.108Z,63.70
2019-05-02T07:48:43.664Z,62.60
2019-05-02T07:52:46.950Z,63.90
2019-05-02T07:56:53.347Z,63.50
2019-05-02T08:00:54.727Z,64.80
2019-05-02T08:04:57.668Z,64.70
2019-05-02T08:09:01.640Z,64.00
2019-05-02T08:13:05.695Z,65.10
2019-05-02T08:17:16.076Z,64.10
2019-05-02T08:21:13.624Z,64.30
2019-05-02T08:25:16.871Z,66.20
2019-05-02T08:29:23.411Z,67.10
2019-05-02T08:33:29.319Z,69.60
2019-05-02T08:37:29.721Z,70.30
2019-05-02T08:41:32.898Z,70.40
2019-05-02T08:45:38.299Z,71.10
2019-05-02T08:49:42.491Z,71.10
2019-05-02T08:53:45.410Z,71.50
2019-05-02T08:57:48.575Z,72.60
2019-05-02T09:01:51.583Z,73.40
2019-05-02T09:06:05.657Z,74.10
2019-05-02T09:10:05.798Z,75.50
2019-05-02T09:14:05.724Z,76.50
2019-05-02T09:18:08.671Z,77.20
2019-05-02T09:22:16.792Z,78.10
2019-05-02T09:26:34.655Z,78.90
2019-05-02T09:30:25.985Z,79.00
2019-05-02T09:34:29.379Z,80.60
2019-05-02T09:38:32.870Z,79.70
2019-05-02T09:42:35.982Z,79.90
2019-05-02T09:46:39.152Z,79.00
2019-05-02T09:50:42.327Z,79.10
2019-05-02T09:54:46.206Z,79.00
2019-05-02T09:58:49.462Z,79.00
2019-05-02T10:02:52.754Z,78.90
2019-05-02T10:06:55.887Z,78.90
2019-05-02T10:11:06.653Z,79.90
2019-05-02T10:15:12.949Z,79.30
2019-05-02T10:19:17.219Z,79.60
2019-05-02T10:23:23.393Z,79.50
2019-05-02T10:27:26.716Z,79.50
2019-05-02T10:31:35.788Z,78.40
2019-05-02T10:35:40.752Z,78.40
2019-05-02T10:39:42.763Z,78.20
2019-05-02T10:43:46.872Z,76.70
2019-05-02T10:47:52.688Z,76.00
2019-05-02T10:51:55.915Z,74.50
2019-05-02T10:55:59.029Z,74.70
2019-05-02T11:00:03.210Z,73.30
2019-05-02T11:04:08.605Z,73.10
2019-05-02T11:08:12.033Z,72.70
2019-05-02T11:12:23.890Z,72.00
2019-05-02T11:16:38.219Z,71.20
2019-05-02T11:20:42.091Z,70.90
2019-05-02T11:24:45.206Z,70.30
2019-05-02T11:28:48.347Z,70.30
2019-05-02T11:32:52.144Z,69.90
2019-05-02T11:36:55.129Z,70.00
2019-05-02T11:40:59.122Z,69.80
2019-05-02T11:45:02.687Z,69.60
2019-05-02T11:49:05.800Z,68.90
2019-05-02T11:53:22.280Z,68.30
2019-05-02T11:57:13.863Z,68.40
2019-05-02T12:01:20.187Z,68.20
2019-05-02T12:05:26.589Z,67.80
2019-05-02T12:09:31.810Z,67.30
2019-05-02T12:13:34.828Z,66.90
2019-05-02T12:17:37.825Z,66.70
2019-05-02T12:21:42.545Z,65.20
2019-05-02T12:25:45.643Z,65.00
2019-05-02T12:29:50.214Z,64.60
2019-05-02T12:33:53.733Z,64.70
2019-05-02T12:37:56.767Z,64.40
2019-05-02T12:41:59.943Z,63.60
2019-05-02T12:46:03.106Z,63.30
2019-05-02T12:50:06.413Z,63.70
2019-05-02T12:54:12.226Z,63.50
2019-05-02T12:58:15.335Z,63.30
2019-05-02T13:02:27.330Z,63.00
2019-05-02T13:06:30.247Z,63.50
2019-05-02T13:11:01.900Z,63.00
2019-05-02T13:14:59.047Z,63.40
2019-05-02T13:19:05.916Z,62.80
2019-05-02T13:23:27.246Z,62.80
2019-05-02T13:27:43.341Z,62.70
2019-05-02T13:31:44.045Z,62.10
2019-05-02T13:35:53.197Z,62.20
2019-05-02T13:40:08.322Z,62.10
2019-05-02T13:44:13.224Z,62.40
2019-05-02T13:48:16.101Z,62.10
2019-05-02T13:52:19.177Z,62.30
2019-05-02T13:56:47.048Z,61.40
2019-05-02T14:00:52.881Z,61.30
2019-05-02T14:04:55.906Z,60.90
2019-05-02T14:09:19.989Z,60.00
2019-05-02T14:13:23.258Z,59.30
2019-05-02T14:17:26.249Z,57.40
2019-05-02T14:21:29.199Z,54.30
2019-05-02T14:25:32.350Z,54.50
2019-05-02T14:29:35.310Z,54.20
2019-05-02T14:33:42.211Z,54.10
2019-05-02T14:37:45.335Z,55.00
2019-05-02T14:41:52.453Z,56.30
2019-05-02T14:45:57.627Z,56.60
2019-05-02T14:50:02.274Z,56.50
2019-05-02T14:54:07.944Z,56.50
2019-05-02T14:58:07.867Z,55.90
2019-05-02T15:02:32.095Z,56.00
2019-05-02T15:06:38.224Z,56.90
2019-05-02T15:10:50.760Z,57.10
2019-05-02T15:14:43.686Z,56.80
2019-05-02T15:18:47.637Z,57.40
2019-05-02T15:22:52.344Z,57.40
2019-05-02T15:26:55.418Z,57.50
2019-05-02T15:31:07.584Z,56.80
2019-05-02T15:35:47.832Z,56.70
2019-05-02T15:43:56.703Z,55.50
2019-05-02T15:47:59.781Z,55.80
2019-05-02T15:52:04.583Z,56.40
2019-05-02T15:56:15.766Z,56.10
2019-05-02T16:00:23.095Z,57.00
2019-05-02T16:04:28.176Z,57.00
2019-05-02T16:08:33.034Z,56.80
2019-05-02T16:12:36.600Z,56.70
2019-05-02T16:16:43.603Z,57.00
2019-05-02T16:21:06.933Z,58.90
2019-05-02T16:25:05.050Z,65.10
2019-05-02T16:29:10.929Z,68.70
2019-05-02T16:33:17.357Z,71.10
2019-05-02T16:37:17.801Z,71.50
2019-05-02T16:41:21.775Z,70.50
2019-05-02T16:45:26.889Z,69.50
2019-05-02T16:49:32.146Z,70.40
2019-05-02T16:53:35.009Z,69.00
2019-05-02T16:57:38.016Z,68.80
2019-05-02T17:01:42.509Z,69.30
2019-05-02T17:05:48.031Z,70.10
2019-05-02T17:10:21.939Z,71.10
2019-05-02T17:14:25.051Z,70.90
2019-05-02T17:18:28.787Z,70.40
2019-05-02T17:22:32.325Z,70.50
2019-05-02T17:26:37.653Z,70.50
2019-05-02T17:30:43.701Z,68.80
2019-05-02T17:34:46.727Z,68.50
2019-05-02T17:38:52.003Z,67.60
2019-05-02T17:42:57.196Z,68.50
2019-05-02T17:47:01.668Z,67.20
2019-05-02T17:51:13.696Z,67.90
2019-05-02T17:55:18.609Z,67.40
2019-05-02T17:59:21.654Z,67.80
2019-05-02T18:03:31.102Z,67.90
2019-05-02T18:07:34.201Z,68.10
2019-05-02T18:11:37.725Z,67.80
2019-05-02T18:15:39.118Z,67.30
2019-05-02T18:19:45.161Z,67.80
2019-05-02T18:23:48.109Z,68.10
2019-05-02T18:27:52.158Z,67.90
2019-05-02T18:31:55.424Z,67.60
2019-05-02T18:35:58.485Z,67.60
2019-05-02T18:40:03.070Z,68.40
2019-05-02T18:44:06.459Z,68.60
2019-05-02T18:48:09.451Z,67.70
2019-05-02T18:52:12.452Z,65.40
2019-05-02T18:56:15.572Z,64.50
2019-05-02T19:00:18.925Z,65.70
2019-05-02T19:04:25.114Z,64.00
2019-05-02T19:08:32.196Z,64.20
2019-05-02T19:12:34.373Z,64.00
2019-05-02T19:16:37.859Z,63.00
2019-05-02T19:21:02.788Z,63.30
2019-05-02T19:25:05.349Z,62.40
2019-05-02T19:29:32.184Z,63.70
2019-05-02T19:33:37.433Z,62.70
2019-05-02T19:37:46.625Z,62.80
2019-05-02T19:41:47.472Z,62.90
2019-05-02T19:45:53.894Z,62.50
2019-05-02T19:49:56.865Z,62.80
2019-05-02T19:54:03.623Z,62.50
2019-05-02T19:58:06.663Z,63.40
2019-05-02T20:02:11.790Z,61.40
2019-05-02T20:06:14.802Z,61.30
2019-05-02T20:10:19.307Z,60.40
2019-05-02T20:14:22.753Z,60.30
2019-05-02T20:18:28.097Z,60.00
2019-05-02T20:22:31.660Z,60.30
2019-05-02T20:26:34.633Z,60.60
2019-05-02T20:30:38.914Z,60.20
2019-05-02T20:34:42.006Z,59.70
2019-05-02T20:38:46.808Z,59.10
2019-05-02T20:42:49.794Z,60.20
2019-05-02T20:46:54.197Z,59.60
2019-05-02T20:50:57.165Z,59.60
2019-05-02T20:55:01.897Z,59.70
2019-05-02T20:59:07.993Z,59.20
2019-05-02T21:03:11.938Z,58.80
2019-05-02T21:07:47.040Z,59.30
2019-05-02T21:11:53.792Z,59.20
2019-05-02T21:15:57.064Z,58.70
2019-05-02T21:20:01.879Z,58.40
2019-05-02T21:24:04.835Z,58.30
2019-05-02T21:28:32.168Z,58.30
2019-05-02T21:32:35.247Z,58.20
2019-05-02T21:36:38.312Z,58.10
2019-05-02T21:40:42.326Z,58.30
2019-05-02T21:44:45.421Z,57.90
2019-05-02T21:48:49.838Z,57.20
2019-05-02T21:53:18.244Z,56.80
2019-05-02T21:57:22.688Z,56.60
2019-05-02T22:01:26.113Z,56.40
2019-05-02T22:05:29.093Z,56.40
2019-05-02T22:09:32.437Z,56.40
2019-05-02T22:13:37.392Z,56.40
2019-05-02T22:17:41.604Z,55.80
2019-05-02T22:21:44.821Z,55.40
2019-05-02T22:25:47.785Z,55.70
2019-05-02T22:29:52.373Z,56.30
2019-05-02T22:33:55.600Z,56.30
2019-05-02T22:38:06.301Z,56.20
2019-05-02T22:42:09.485Z,56.20
2019-05-02T22:46:14.606Z,56.20
2019-05-02T22:50:17.750Z,56.20
2019-05-02T22:54:29.962Z,55.90
2019-05-02T22:58:32.559Z,56.20
2019-05-02T23:02:38.864Z,56.80
2019-05-02T23:06:43.993Z,56.00
2019-05-02T23:10:46.695Z,56.10
2019-05-02T23:14:49.672Z,56.00
2019-05-02T23:18:53.365Z,56.00
2019-05-02T23:22:56.304Z,56.40
2019-05-02T23:27:32.154Z,55.90
2019-05-02T23:31:35.141Z,55.20
2019-05-02T23:35:38.228Z,55.50
2019-05-02T23:39:44.324Z,55.00
2019-05-02T23:43:49.150Z,55.30
2019-05-02T23:47:52.983Z,54.50
2019-05-02T23:51:55.958Z,54.20
2019-05-02T23:55:58.926Z,54.50
